Time;durP1;ratioP1;P1;durP2;ratioP2;P2;SDS_P1;SDS_P2;PMS_P1;PMS_P2;Temp;Humidity;BMP_temperature;BMP_pressure;BME280_temperature;BME280_humidity;BME280_pressure;Samples;Min_cycle;Max_cycle;Signal;HPM_P1;HPM_P2
2023/08/06 00:01:37;;;;;;;1.60;1.50;;;;;;;;;;5031770;28;20044;-75
2023/08/06 00:04:03;;;;;;;1.27;1.17;;;;;;;;;;5045800;28;20153;-75
2023/08/06 00:06:28;;;;;;;1.20;0.90;;;;;;;;;;5042926;28;20044;-75
2023/08/06 00:08:54;;;;;;;1.30;1.20;;;;;;;;;;5051748;28;20039;-75
2023/08/06 00:11:20;;;;;;;1.10;1.10;;;;;;;;;;5052704;28;20040;-74
2023/08/06 00:13:46;;;;;;;1.80;1.23;;;;;;;;;;5041509;28;20033;-74
2023/08/06 00:16:12;;;;;;;2.13;1.27;;;;;;;;;;5045319;28;20045;-75
2023/08/06 00:18:38;;;;;;;1.30;1.20;;;;;;;;;;5046822;28;20028;-75
2023/08/06 00:21:04;;;;;;;1.25;1.15;;;;;;;;;;5041741;28;20390;-75
2023/08/06 00:23:29;;;;;;;1.13;1.02;;;;;;;;;;5056262;28;20041;-75
2023/08/06 00:25:55;;;;;;;1.50;1.20;;;;;;;;;;5052607;28;20487;-75
2023/08/06 00:28:20;;;;;;;1.05;0.90;;;;;;;;;;5049765;28;20045;-75
2023/08/06 00:30:46;;;;;;;1.08;0.88;;;;;;;;;;5050108;28;20029;-75
2023/08/06 00:33:11;;;;;;;1.40;0.98;;;;;;;;;;5042828;28;20044;-75
2023/08/06 00:35:36;;;;;;;2.05;0.90;;;;;;;;;;5049502;28;20036;-75
2023/08/06 00:38:02;;;;;;;1.50;0.80;;;;;;;;;;5053607;28;20456;-74
2023/08/06 00:40:29;;;;;;;3.92;1.08;;;;;;;;;;5057853;28;20037;-74
2023/08/06 00:42:55;;;;;;;0.77;0.77;;;;;;;;;;5031251;28;20395;-74
2023/08/06 00:45:21;;;;;;;1.40;1.30;;;;;;;;;;5051739;28;20567;-74
2023/08/06 00:47:47;;;;;;;1.38;1.05;;;;;;;;;;5045721;28;20082;-74
2023/08/06 00:50:13;;;;;;;1.48;1.38;;;;;;;;;;5031900;28;20038;-74
2023/08/06 00:52:39;;;;;;;1.20;0.98;;;;;;;;;;5035203;28;20037;-74
2023/08/06 00:55:06;;;;;;;3.28;0.90;;;;;;;;;;5016871;28;20063;-74
2023/08/06 00:57:31;;;;;;;1.10;1.00;;;;;;;;;;5030283;28;20037;-74
2023/08/06 00:59:57;;;;;;;2.25;0.82;;;;;;;;;;5018154;28;20040;-74
2023/08/06 01:02:22;;;;;;;1.38;1.27;;;;;;;;;;5028401;28;20059;-74
2023/08/06 01:04:47;;;;;;;0.80;0.80;;;;;;;;;;5032694;28;20037;-74
2023/08/06 01:07:30;;;;;;;0.77;0.77;;;;;;;;;;5030633;28;20048;-75
2023/08/06 01:10:04;;;;;;;0.85;0.70;;;;;;;;;;5026492;28;20096;-74
2023/08/06 01:13:01;;;;;;;1.75;0.98;;;;;;;;;;5041589;28;20595;-74
2023/08/06 01:15:34;;;;;;;0.63;0.63;;;;;;;;;;5006949;28;20386;-73
2023/08/06 01:18:00;;;;;;;1.42;1.00;;;;;;;;;;5025380;28;20033;-74
2023/08/06 01:20:30;;;;;;;1.85;0.90;;;;;;;;;;5012683;28;20482;-74
2023/08/06 01:22:55;;;;;;;1.80;1.00;;;;;;;;;;5023839;28;20053;-74
2023/08/06 01:25:26;;;;;;;1.52;1.05;;;;;;;;;;5020707;28;20039;-74
2023/08/06 01:27:55;;;;;;;0.90;0.90;;;;;;;;;;5029527;28;20037;-74
2023/08/06 01:30:27;;;;;;;1.38;1.00;;;;;;;;;;5015737;28;20085;-74
2023/08/06 01:32:56;;;;;;;1.00;1.00;;;;;;;;;;5028089;28;20041;-74
2023/08/06 01:35:22;;;;;;;1.20;1.10;;;;;;;;;;5034979;28;20419;-74
2023/08/06 01:37:48;;;;;;;1.20;1.10;;;;;;;;;;5025784;28;20037;-74
2023/08/06 01:40:14;;;;;;;1.52;1.42;;;;;;;;;;5031100;28;20044;-74
2023/08/06 01:42:40;;;;;;;1.38;1.27;;;;;;;;;;5018920;28;20126;-74
2023/08/06 01:45:09;;;;;;;2.00;1.80;;;;;;;;;;4992843;28;20034;-74
2023/08/06 01:47:35;;;;;;;2.72;1.30;;;;;;;;;;5035417;28;20654;-74
2023/08/06 01:50:00;;;;;;;2.80;1.88;;;;;;;;;;5029216;28;20055;-74
2023/08/06 01:52:27;;;;;;;2.15;1.60;;;;;;;;;;5019563;28;20537;-75
2023/08/06 01:54:52;;;;;;;2.20;2.00;;;;;;;;;;5030692;28;20501;-74
2023/08/06 01:57:18;;;;;;;1.55;1.20;;;;;;;;;;5014754;28;20076;-75
2023/08/06 01:59:43;;;;;;;2.72;2.22;;;;;;;;;;5027263;28;20034;-74
2023/08/06 02:02:09;;;;;;;3.63;2.30;;;;;;;;;;5031028;28;20536;-74
2023/08/06 02:04:34;;;;;;;2.78;2.47;;;;;;;;;;5021296;28;20510;-74
2023/08/06 02:06:59;;;;;;;2.30;2.10;;;;;;;;;;5023366;28;20029;-74
2023/08/06 02:09:25;;;;;;;2.05;1.33;;;;;;;;;;5017647;28;20040;-74
2023/08/06 02:11:50;;;;;;;1.83;1.40;;;;;;;;;;5007283;28;20034;-74
2023/08/06 02:14:16;;;;;;;2.17;1.98;;;;;;;;;;5031606;28;20058;-74
2023/08/06 02:16:41;;;;;;;5.18;1.90;;;;;;;;;;5029793;28;20524;-75
2023/08/06 02:19:06;;;;;;;2.83;2.30;;;;;;;;;;5032715;28;20736;-75
2023/08/06 02:21:32;;;;;;;3.60;1.67;;;;;;;;;;5021521;28;20037;-74
2023/08/06 02:23:57;;;;;;;1.52;1.20;;;;;;;;;;5027897;28;20516;-75
2023/08/06 02:26:23;;;;;;;1.55;1.45;;;;;;;;;;5011289;28;20076;-75
2023/08/06 02:28:48;;;;;;;3.70;1.55;;;;;;;;;;5032064;28;20039;-75
2023/08/06 02:31:13;;;;;;;1.60;1.40;;;;;;;;;;5028973;28;20088;-75
2023/08/06 02:33:39;;;;;;;3.33;1.70;;;;;;;;;;5029798;28;20086;-75
2023/08/06 02:36:04;;;;;;;1.52;1.42;;;;;;;;;;5029226;28;20040;-75
2023/08/06 02:38:33;;;;;;;1.63;1.33;;;;;;;;;;5019588;28;20098;-75
2023/08/06 02:41:02;;;;;;;1.45;1.35;;;;;;;;;;5006843;28;20026;-75
2023/08/06 02:43:27;;;;;;;1.42;1.33;;;;;;;;;;5020953;28;20041;-74
2023/08/06 02:45:56;;;;;;;1.70;1.13;;;;;;;;;;5025695;28;20524;-74
2023/08/06 02:48:22;;;;;;;1.85;1.75;;;;;;;;;;5026562;28;20029;-75
2023/08/06 02:50:47;;;;;;;1.35;1.10;;;;;;;;;;5027616;28;20713;-74
2023/08/06 02:53:12;;;;;;;2.22;1.40;;;;;;;;;;5015546;28;20056;-74
2023/08/06 02:55:44;;;;;;;1.20;1.10;;;;;;;;;;5031102;28;20090;-74
2023/08/06 02:58:10;;;;;;;1.05;0.90;;;;;;;;;;5025222;28;20098;-74
2023/08/06 03:00:35;;;;;;;0.80;0.80;;;;;;;;;;5054896;28;20610;-74
2023/08/06 03:03:00;;;;;;;1.23;1.13;;;;;;;;;;5046610;28;20044;-75
2023/08/06 03:05:26;;;;;;;1.00;0.82;;;;;;;;;;5054860;28;20036;-75
2023/08/06 03:07:51;;;;;;;2.15;1.00;;;;;;;;;;5028228;28;20048;-75
2023/08/06 03:10:16;;;;;;;0.95;0.90;;;;;;;;;;5049586;28;20098;-75
2023/08/06 03:12:42;;;;;;;1.05;0.90;;;;;;;;;;5050709;28;20037;-76
2023/08/06 03:15:08;;;;;;;1.05;0.95;;;;;;;;;;5045668;28;20044;-76
2023/08/06 03:17:33;;;;;;;1.20;1.10;;;;;;;;;;5049694;28;20063;-77
2023/08/06 03:19:58;;;;;;;1.30;1.20;;;;;;;;;;5042790;28;20106;-76
2023/08/06 03:22:24;;;;;;;1.20;1.00;;;;;;;;;;5043005;28;20040;-76
2023/08/06 03:24:52;;;;;;;0.90;0.90;;;;;;;;;;5048981;28;20036;-75
2023/08/06 03:27:17;;;;;;;0.98;0.95;;;;;;;;;;5054517;28;20033;-76
2023/08/06 03:29:43;;;;;;;1.48;1.10;;;;;;;;;;5034866;28;20536;-75
2023/08/06 03:32:08;;;;;;;0.85;0.85;;;;;;;;;;5049795;28;20394;-76
2023/08/06 03:34:34;;;;;;;2.83;1.70;;;;;;;;;;5051297;28;20037;-75
2023/08/06 03:36:59;;;;;;;1.98;1.88;;;;;;;;;;5039715;28;20360;-75
2023/08/06 03:39:24;;;;;;;2.33;2.00;;;;;;;;;;5053743;28;20507;-75
2023/08/06 03:41:50;;;;;;;1.80;1.70;;;;;;;;;;5051748;28;20033;-75
2023/08/06 03:44:15;;;;;;;2.22;2.00;;;;;;;;;;5056655;28;20040;-75
2023/08/06 03:46:40;;;;;;;1.60;1.50;;;;;;;;;;5046648;28;20166;-75
2023/08/06 03:49:06;;;;;;;1.73;1.20;;;;;;;;;;5053547;28;20036;-76
2023/08/06 03:51:31;;;;;;;2.25;1.63;;;;;;;;;;5044340;28;20603;-75
2023/08/06 03:53:56;;;;;;;1.20;1.10;;;;;;;;;;5047278;28;20072;-76
2023/08/06 03:56:22;;;;;;;1.58;1.48;;;;;;;;;;5045682;28;20036;-76
2023/08/06 03:58:47;;;;;;;2.28;1.30;;;;;;;;;;5053399;28;20079;-76
2023/08/06 04:01:13;;;;;;;1.70;1.60;;;;;;;;;;5054020;28;20044;-76
2023/08/06 04:03:38;;;;;;;2.22;2.00;;;;;;;;;;5044743;28;20052;-76
2023/08/06 04:06:04;;;;;;;4.55;2.25;;;;;;;;;;5044271;28;20728;-76
2023/08/06 04:08:29;;;;;;;1.20;1.10;;;;;;;;;;5046383;28;20048;-75
2023/08/06 04:10:55;;;;;;;1.45;1.20;;;;;;;;;;5023774;28;20083;-76
2023/08/06 04:13:20;;;;;;;1.63;1.52;;;;;;;;;;5048320;28;20090;-75
2023/08/06 04:15:46;;;;;;;4.28;1.85;;;;;;;;;;5049903;28;20040;-75
2023/08/06 04:18:12;;;;;;;2.60;2.20;;;;;;;;;;5037922;28;20037;-75
2023/08/06 04:20:44;;;;;;;1.13;1.10;;;;;;;;;;5047430;28;20075;-75
2023/08/06 04:23:10;;;;;;;1.42;1.33;;;;;;;;;;5054865;28;20334;-75
2023/08/06 04:25:35;;;;;;;1.88;1.58;;;;;;;;;;5052914;28;20714;-75
2023/08/06 04:28:00;;;;;;;3.60;1.50;;;;;;;;;;5041439;28;20033;-75
2023/08/06 04:30:26;;;;;;;2.30;1.70;;;;;;;;;;5049441;28;20048;-76
2023/08/06 04:32:51;;;;;;;1.30;1.20;;;;;;;;;;5041415;28;20416;-75
2023/08/06 04:35:16;;;;;;;1.40;1.30;;;;;;;;;;5050647;28;20092;-76
2023/08/06 04:37:42;;;;;;;1.60;1.50;;;;;;;;;;5052220;28;20401;-76
2023/08/06 04:40:08;;;;;;;2.63;1.80;;;;;;;;;;5046357;28;20044;-76
2023/08/06 04:42:33;;;;;;;0.80;0.80;;;;;;;;;;5052715;28;20174;-76
2023/08/06 04:45:01;;;;;;;2.45;2.08;;;;;;;;;;5052509;28;20029;-76
2023/08/06 04:47:27;;;;;;;2.30;1.40;;;;;;;;;;5035205;28;20049;-77
2023/08/06 04:49:53;;;;;;;2.08;1.88;;;;;;;;;;5029162;28;20397;-76
2023/08/06 04:52:18;;;;;;;1.40;1.00;;;;;;;;;;5041993;28;20060;-76
2023/08/06 04:54:43;;;;;;;1.27;1.17;;;;;;;;;;5047333;28;20136;-76
2023/08/06 04:57:09;;;;;;;0.90;0.90;;;;;;;;;;5041352;28;20053;-76
2023/08/06 04:59:35;;;;;;;0.60;0.60;;;;;;;;;;5043138;28;20442;-76
2023/08/06 05:02:00;;;;;;;2.50;2.28;;;;;;;;;;5036869;28;20036;-75
2023/08/06 05:04:25;;;;;;;3.80;2.45;;;;;;;;;;5050886;28;20131;-75
2023/08/06 05:06:51;;;;;;;2.95;2.50;;;;;;;;;;5040267;28;20044;-75
2023/08/06 05:09:16;;;;;;;2.67;2.40;;;;;;;;;;5048123;28;20040;-75
2023/08/06 05:11:42;;;;;;;2.53;1.80;;;;;;;;;;5036465;28;20047;-75
2023/08/06 05:14:07;;;;;;;2.47;1.95;;;;;;;;;;5008074;28;20773;-75
2023/08/06 05:16:33;;;;;;;2.00;1.88;;;;;;;;;;5029755;28;20110;-75
2023/08/06 05:18:58;;;;;;;1.60;1.50;;;;;;;;;;5052876;28;20063;-75
2023/08/06 05:21:23;;;;;;;2.85;1.60;;;;;;;;;;5049691;28;20112;-75
2023/08/06 05:23:49;;;;;;;1.85;1.30;;;;;;;;;;5051028;28;20634;-75
2023/08/06 05:26:18;;;;;;;1.45;1.30;;;;;;;;;;5052882;28;20052;-75
2023/08/06 05:28:43;;;;;;;2.53;1.85;;;;;;;;;;5038709;28;20658;-75
2023/08/06 05:31:09;;;;;;;2.70;2.08;;;;;;;;;;5033864;28;20144;-74
2023/08/06 05:33:34;;;;;;;3.88;1.75;;;;;;;;;;5035430;28;20158;-75
2023/08/06 05:36:00;;;;;;;2.95;2.25;;;;;;;;;;5045293;28;20130;-76
2023/08/06 05:38:25;;;;;;;2.20;2.00;;;;;;;;;;5049871;28;20111;-76
2023/08/06 05:40:50;;;;;;;2.92;1.88;;;;;;;;;;5045905;28;20047;-74
2023/08/06 05:43:16;;;;;;;2.17;1.73;;;;;;;;;;5029157;28;20049;-76
2023/08/06 05:45:46;;;;;;;4.45;2.58;;;;;;;;;;5032137;28;20045;-75
2023/08/06 05:48:11;;;;;;;1.70;1.60;;;;;;;;;;5041698;28;20127;-76
2023/08/06 05:50:37;;;;;;;5.38;2.97;;;;;;;;;;5053181;28;20116;-75
2023/08/06 05:53:02;;;;;;;5.50;2.83;;;;;;;;;;5053428;28;20064;-76
2023/08/06 05:55:28;;;;;;;3.97;2.80;;;;;;;;;;5013724;28;20043;-75
2023/08/06 05:57:53;;;;;;;4.82;3.08;;;;;;;;;;5032843;28;20091;-75
2023/08/06 06:00:20;;;;;;;1.88;1.75;;;;;;;;;;5051323;28;20061;-75
2023/08/06 06:02:46;;;;;;;2.60;1.88;;;;;;;;;;5049256;28;20227;-76
2023/08/06 06:05:11;;;;;;;9.63;6.07;;;;;;;;;;5053947;28;20401;-76
2023/08/06 06:07:36;;;;;;;3.05;2.45;;;;;;;;;;5046529;28;20045;-76
2023/08/06 06:10:02;;;;;;;4.03;2.88;;;;;;;;;;5049690;28;20047;-75
2023/08/06 06:12:27;;;;;;;4.90;3.00;;;;;;;;;;5061554;28;20032;-76
2023/08/06 06:14:53;;;;;;;4.78;2.53;;;;;;;;;;5041407;28;20039;-75
2023/08/06 06:17:18;;;;;;;7.38;3.38;;;;;;;;;;5034900;28;20494;-76
2023/08/06 06:19:43;;;;;;;5.47;3.38;;;;;;;;;;5047490;28;20536;-75
2023/08/06 06:22:09;;;;;;;4.55;2.58;;;;;;;;;;5047655;28;20033;-76
2023/08/06 06:24:34;;;;;;;4.00;2.15;;;;;;;;;;5023256;28;20119;-75
2023/08/06 06:27:00;;;;;;;2.33;1.80;;;;;;;;;;5029825;28;20048;-76
2023/08/06 06:29:25;;;;;;;1.77;1.67;;;;;;;;;;5033995;28;20513;-77
2023/08/06 06:31:51;;;;;;;2.75;2.55;;;;;;;;;;5042856;28;20045;-75
2023/08/06 06:34:16;;;;;;;3.28;2.50;;;;;;;;;;5052196;28;20041;-76
2023/08/06 06:36:41;;;;;;;2.03;1.83;;;;;;;;;;5050114;28;20039;-75
2023/08/06 06:39:08;;;;;;;3.55;2.78;;;;;;;;;;5031650;28;20115;-75
2023/08/06 06:41:33;;;;;;;2.08;1.80;;;;;;;;;;5037657;28;20047;-75
2023/08/06 06:43:58;;;;;;;4.57;2.72;;;;;;;;;;5046150;28;20041;-75
2023/08/06 06:46:24;;;;;;;2.10;1.90;;;;;;;;;;5050879;28;20197;-74
2023/08/06 06:48:49;;;;;;;1.50;1.40;;;;;;;;;;5049075;28;20044;-75
2023/08/06 06:51:15;;;;;;;3.55;2.20;;;;;;;;;;5041835;28;20036;-75
2023/08/06 06:53:40;;;;;;;1.48;1.27;;;;;;;;;;5039387;28;20055;-76
2023/08/06 06:56:06;;;;;;;3.75;3.45;;;;;;;;;;5041528;28;20049;-75
2023/08/06 06:58:31;;;;;;;4.15;2.80;;;;;;;;;;5030722;28;20036;-76
2023/08/06 07:00:57;;;;;;;4.72;2.20;;;;;;;;;;5033437;28;20036;-75
2023/08/06 07:03:23;;;;;;;3.85;3.13;;;;;;;;;;5047446;28;20039;-76
2023/08/06 07:05:49;;;;;;;3.85;3.25;;;;;;;;;;5031830;28;20040;-76
2023/08/06 07:08:15;;;;;;;6.15;2.70;;;;;;;;;;5038261;28;20037;-76
2023/08/06 07:10:41;;;;;;;2.75;2.53;;;;;;;;;;5044813;28;20040;-75
2023/08/06 07:13:07;;;;;;;3.40;2.92;;;;;;;;;;5040888;28;20102;-75
2023/08/06 07:15:32;;;;;;;2.75;2.50;;;;;;;;;;5049709;28;20616;-76
2023/08/06 07:17:58;;;;;;;3.88;2.58;;;;;;;;;;5050502;28;20047;-76
2023/08/06 07:20:23;;;;;;;3.80;2.40;;;;;;;;;;5048361;28;20062;-74
2023/08/06 07:22:49;;;;;;;5.65;2.80;;;;;;;;;;5036317;28;20030;-77
2023/08/06 07:25:15;;;;;;;1.92;1.75;;;;;;;;;;5043301;28;20127;-77
2023/08/06 07:27:41;;;;;;;3.05;2.55;;;;;;;;;;5049701;28;20111;-77
2023/08/06 07:30:07;;;;;;;4.50;2.50;;;;;;;;;;5036822;28;20106;-77
2023/08/06 07:32:32;;;;;;;3.30;2.95;;;;;;;;;;5034879;28;20140;-77
2023/08/06 07:35:00;;;;;;;2.65;2.45;;;;;;;;;;5024939;28;20033;-77
2023/08/06 07:37:28;;;;;;;2.15;1.85;;;;;;;;;;5047264;28;20120;-77
2023/08/06 07:39:54;;;;;;;3.45;2.20;;;;;;;;;;5047564;28;20064;-76
2023/08/06 07:42:20;;;;;;;2.70;2.35;;;;;;;;;;5052104;28;20148;-77
2023/08/06 07:44:58;;;;;;;4.70;2.17;;;;;;;;;;5029826;28;20555;-78
2023/08/06 07:47:23;;;;;;;3.10;2.30;;;;;;;;;;5044051;28;20036;-76
2023/08/06 07:49:49;;;;;;;3.60;2.15;;;;;;;;;;5029645;28;20138;-77
2023/08/06 07:52:14;;;;;;;2.08;1.88;;;;;;;;;;5064028;28;20043;-75
2023/08/06 07:54:40;;;;;;;3.03;2.13;;;;;;;;;;5053579;28;20529;-76
2023/08/06 07:57:06;;;;;;;2.40;2.20;;;;;;;;;;5059582;28;20047;-77
2023/08/06 07:59:31;;;;;;;3.05;1.92;;;;;;;;;;5053245;28;20133;-77
2023/08/06 08:01:57;;;;;;;2.58;2.10;;;;;;;;;;5038382;28;20040;-76
2023/08/06 08:04:23;;;;;;;2.28;2.08;;;;;;;;;;5044585;28;20033;-77
2023/08/06 08:06:48;;;;;;;1.88;1.30;;;;;;;;;;5047906;28;20041;-76
2023/08/06 08:09:14;;;;;;;1.52;1.42;;;;;;;;;;5045077;28;20647;-77
2023/08/06 08:11:40;;;;;;;3.47;1.95;;;;;;;;;;5050221;28;20044;-74
2023/08/06 08:14:06;;;;;;;2.97;2.05;;;;;;;;;;5042464;28;20047;-76
2023/08/06 08:16:31;;;;;;;1.90;1.80;;;;;;;;;;5033327;28;20038;-76
2023/08/06 08:18:57;;;;;;;1.80;1.70;;;;;;;;;;5049248;28;20147;-76
2023/08/06 08:21:24;;;;;;;2.13;1.40;;;;;;;;;;5048473;28;20451;-75
2023/08/06 08:23:50;;;;;;;2.42;1.50;;;;;;;;;;5041970;28;20046;-76
2023/08/06 08:26:15;;;;;;;1.75;1.65;;;;;;;;;;5044574;28;20072;-76
2023/08/06 08:28:40;;;;;;;1.95;1.48;;;;;;;;;;5044339;28;20115;-75
2023/08/06 08:31:09;;;;;;;1.75;1.65;;;;;;;;;;5035659;28;20041;-76
2023/08/06 08:33:34;;;;;;;2.03;1.38;;;;;;;;;;5039454;28;20390;-76
2023/08/06 08:36:00;;;;;;;1.42;1.33;;;;;;;;;;5045182;28;20051;-76
2023/08/06 08:38:25;;;;;;;2.17;1.60;;;;;;;;;;5049496;28;20040;-76
2023/08/06 08:40:53;;;;;;;2.55;1.70;;;;;;;;;;5053316;28;20041;-76
2023/08/06 08:43:21;;;;;;;1.85;1.65;;;;;;;;;;5052469;28;20044;-75
2023/08/06 08:45:51;;;;;;;2.88;1.50;;;;;;;;;;5013521;28;20495;-75
2023/08/06 08:48:19;;;;;;;2.42;1.80;;;;;;;;;;5051117;28;20145;-76
2023/08/06 08:50:46;;;;;;;1.90;1.73;;;;;;;;;;5050210;28;20785;-76
2023/08/06 08:53:15;;;;;;;1.65;1.23;;;;;;;;;;5046324;28;20123;-76
2023/08/06 08:55:42;;;;;;;1.60;1.50;;;;;;;;;;5047050;28;20033;-76
2023/08/06 08:58:07;;;;;;;1.80;1.42;;;;;;;;;;5026506;28;20641;-75
2023/08/06 09:00:33;;;;;;;2.05;1.80;;;;;;;;;;5051929;28;20047;-76
2023/08/06 09:03:01;;;;;;;1.83;1.58;;;;;;;;;;5048297;28;20047;-75
2023/08/06 09:05:30;;;;;;;1.58;1.48;;;;;;;;;;5049245;28;20523;-75
2023/08/06 09:08:02;;;;;;;1.70;1.38;;;;;;;;;;5053682;28;20168;-75
2023/08/06 09:10:27;;;;;;;2.10;1.25;;;;;;;;;;5022058;28;20083;-76
2023/08/06 09:12:54;;;;;;;2.42;1.70;;;;;;;;;;5043894;28;20513;-76
2023/08/06 09:15:20;;;;;;;2.08;1.35;;;;;;;;;;5042031;28;21496;-75
2023/08/06 09:17:45;;;;;;;2.17;1.45;;;;;;;;;;5052464;28;20036;-75
2023/08/06 09:20:15;;;;;;;1.48;1.38;;;;;;;;;;5038755;28;20163;-75
2023/08/06 09:22:41;;;;;;;1.67;1.40;;;;;;;;;;5034062;28;20521;-75
2023/08/06 09:25:10;;;;;;;2.17;1.42;;;;;;;;;;5030621;28;20052;-74
2023/08/06 09:27:39;;;;;;;1.83;1.65;;;;;;;;;;5049649;28;20040;-75
2023/08/06 09:30:06;;;;;;;2.78;1.60;;;;;;;;;;5039158;28;20040;-75
2023/08/06 09:32:46;;;;;;;1.65;1.40;;;;;;;;;;5038293;28;20040;-75
2023/08/06 09:35:16;;;;;;;2.58;1.50;;;;;;;;;;5009415;28;20996;-74
2023/08/06 09:37:42;;;;;;;4.10;1.40;;;;;;;;;;5039067;28;20044;-75
2023/08/06 09:40:30;;;;;;;3.13;1.58;;;;;;;;;;5039883;28;20052;-74
2023/08/06 09:42:57;;;;;;;1.63;1.17;;;;;;;;;;5034033;28;20114;-74
2023/08/06 09:45:28;;;;;;;2.05;1.05;;;;;;;;;;5037945;28;20704;-74
2023/08/06 09:47:56;;;;;;;;;;;;;;;;;;5039064;28;20064;-74
2023/08/06 09:50:22;;;;;;;1.10;0.98;;;;;;;;;;5041130;28;19913;-74
2023/08/06 09:52:50;;;;;;;1.50;1.27;;;;;;;;;;5036346;28;20812;-74
2023/08/06 09:55:16;;;;;;;2.47;1.70;;;;;;;;;;5047511;28;20155;-74
2023/08/06 09:57:42;;;;;;;1.50;1.40;;;;;;;;;;5020672;28;20033;-74
2023/08/06 10:00:09;;;;;;;1.40;1.30;;;;;;;;;;5032575;28;20045;-74
2023/08/06 10:02:39;;;;;;;1.65;1.50;;;;;;;;;;5017225;28;20099;-74
2023/08/06 10:05:09;;;;;;;1.52;1.40;;;;;;;;;;5041029;28;20107;-74
2023/08/06 10:07:36;;;;;;;3.10;1.40;;;;;;;;;;5024166;28;20607;-74
2023/08/06 10:10:02;;;;;;;3.00;1.60;;;;;;;;;;5042572;28;20090;-74
2023/08/06 10:12:43;;;;;;;1.52;1.40;;;;;;;;;;5041591;28;20093;-74
2023/08/06 10:15:15;;;;;;;2.72;1.75;;;;;;;;;;5007225;28;20903;-74
2023/08/06 10:17:41;;;;;;;2.15;1.45;;;;;;;;;;5046994;28;20539;-74
2023/08/06 10:20:08;;;;;;;1.88;1.23;;;;;;;;;;5038898;28;20049;-74
2023/08/06 10:22:34;;;;;;;3.08;1.20;;;;;;;;;;5040074;28;20342;-74
2023/08/06 10:25:04;;;;;;;1.15;1.05;;;;;;;;;;5042049;28;21367;-74
2023/08/06 10:27:34;;;;;;;1.88;1.20;;;;;;;;;;5014261;28;20131;-74
2023/08/06 10:30:34;;;;;;;0.80;0.80;;;;;;;;;;5032423;28;20060;-74
2023/08/06 10:33:01;;;;;;;1.00;0.80;;;;;;;;;;5035377;28;20696;-74
2023/08/06 10:35:32;;;;;;;1.45;1.02;;;;;;;;;;5039810;28;20037;-74
2023/08/06 10:38:05;;;;;;;1.75;1.10;;;;;;;;;;5037768;28;20040;-74
2023/08/06 10:40:32;;;;;;;1.27;1.00;;;;;;;;;;5040859;28;20149;-74
2023/08/06 10:43:01;;;;;;;1.98;1.10;;;;;;;;;;5039489;28;20040;-74
2023/08/06 10:45:28;;;;;;;1.58;1.00;;;;;;;;;;5027219;28;20056;-74
2023/08/06 10:47:57;;;;;;;1.48;1.13;;;;;;;;;;5031751;28;20047;-74
2023/08/06 10:50:24;;;;;;;1.30;1.20;;;;;;;;;;5034491;28;20036;-74
2023/08/06 10:52:50;;;;;;;3.60;1.50;;;;;;;;;;5033162;28;20032;-74
2023/08/06 10:55:26;;;;;;;1.42;1.20;;;;;;;;;;5027072;28;20028;-74
2023/08/06 10:57:52;;;;;;;1.15;1.05;;;;;;;;;;5048765;28;20119;-74
2023/08/06 11:00:18;;;;;;;1.73;1.00;;;;;;;;;;5044879;28;20157;-74
2023/08/06 11:02:46;;;;;;;1.20;1.10;;;;;;;;;;5020059;28;20500;-74
2023/08/06 11:05:12;;;;;;;1.05;0.98;;;;;;;;;;5040744;28;20044;-74
2023/08/06 11:07:38;;;;;;;1.20;1.05;;;;;;;;;;5026344;28;20540;-75
2023/08/06 11:10:08;;;;;;;1.17;1.08;;;;;;;;;;5045544;28;20583;-74
2023/08/06 11:12:34;;;;;;;0.80;0.80;;;;;;;;;;5041668;28;20139;-74
2023/08/06 11:15:00;;;;;;;1.08;1.00;;;;;;;;;;5041190;28;20056;-75
2023/08/06 11:17:29;;;;;;;1.63;1.40;;;;;;;;;;5037977;28;20119;-74
2023/08/06 11:19:56;;;;;;;0.88;0.82;;;;;;;;;;5037483;28;21131;-74
2023/08/06 11:22:22;;;;;;;1.45;1.27;;;;;;;;;;5038725;28;20036;-74
2023/08/06 11:24:48;;;;;;;1.38;1.20;;;;;;;;;;5041768;28;20101;-75
2023/08/06 11:27:15;;;;;;;2.10;1.42;;;;;;;;;;5045256;28;20045;-75
2023/08/06 11:29:42;;;;;;;2.17;1.30;;;;;;;;;;5047959;28;20075;-74
2023/08/06 11:32:11;;;;;;;1.38;1.20;;;;;;;;;;5016811;28;20083;-74
2023/08/06 11:34:37;;;;;;;1.48;1.20;;;;;;;;;;5020363;28;20040;-75
2023/08/06 11:37:04;;;;;;;1.40;1.20;;;;;;;;;;5021999;28;20136;-75
2023/08/06 11:39:30;;;;;;;2.63;1.25;;;;;;;;;;5028418;28;20037;-74
2023/08/06 11:41:55;;;;;;;1.40;1.17;;;;;;;;;;5023431;28;20217;-75
2023/08/06 11:44:22;;;;;;;1.48;1.15;;;;;;;;;;5012117;28;20132;-75
2023/08/06 11:47:01;;;;;;;1.48;1.20;;;;;;;;;;5025955;28;20473;-75
2023/08/06 11:49:44;;;;;;;1.67;1.40;;;;;;;;;;5018759;28;20178;-75
2023/08/06 11:52:25;;;;;;;1.30;1.20;;;;;;;;;;5020988;28;20537;-74
2023/08/06 11:55:02;;;;;;;1.70;1.10;;;;;;;;;;5009127;28;20041;-74
2023/08/06 11:57:32;;;;;;;2.47;1.10;;;;;;;;;;5015407;28;20899;-75
2023/08/06 12:00:09;;;;;;;1.25;1.15;;;;;;;;;;5012735;28;20078;-74
2023/08/06 12:02:36;;;;;;;1.20;1.10;;;;;;;;;;5025383;28;20110;-75
2023/08/06 12:05:04;;;;;;;1.30;1.00;;;;;;;;;;4993754;28;20069;-75
2023/08/06 12:07:32;;;;;;;1.42;1.15;;;;;;;;;;5022512;28;20059;-74
2023/08/06 12:09:58;;;;;;;1.65;1.00;;;;;;;;;;5020510;28;20049;-75
2023/08/06 12:12:24;;;;;;;1.60;1.33;;;;;;;;;;5019469;28;20051;-75
2023/08/06 12:14:49;;;;;;;0.88;0.88;;;;;;;;;;5020876;28;20038;-75
2023/08/06 12:17:15;;;;;;;1.08;0.82;;;;;;;;;;5007309;28;20463;-75
2023/08/06 12:19:40;;;;;;;1.45;1.23;;;;;;;;;;5006084;28;20123;-75
2023/08/06 12:22:05;;;;;;;1.05;0.95;;;;;;;;;;5010161;28;20056;-74
2023/08/06 12:24:31;;;;;;;1.50;1.20;;;;;;;;;;5005512;28;20038;-75
2023/08/06 12:27:01;;;;;;;1.30;1.17;;;;;;;;;;5019119;28;20156;-75
2023/08/06 12:29:28;;;;;;;2.58;1.13;;;;;;;;;;5019557;28;20041;-74
2023/08/06 12:31:53;;;;;;;1.75;1.05;;;;;;;;;;5026228;28;20048;-74
2023/08/06 12:34:18;;;;;;;3.03;1.00;;;;;;;;;;5017395;28;21650;-74
2023/08/06 12:36:44;;;;;;;2.17;1.00;;;;;;;;;;5016314;28;20038;-75
2023/08/06 12:39:10;;;;;;;1.75;1.05;;;;;;;;;;5026488;28;20036;-74
2023/08/06 12:41:35;;;;;;;0.60;0.60;;;;;;;;;;5030449;28;20036;-74
2023/08/06 12:44:01;;;;;;;1.08;0.98;;;;;;;;;;5025057;28;20132;-75
2023/08/06 12:46:26;;;;;;;0.70;0.70;;;;;;;;;;5019642;28;20092;-75
2023/08/06 12:48:51;;;;;;;1.27;1.17;;;;;;;;;;5021096;28;20048;-74
2023/08/06 12:51:17;;;;;;;1.00;0.90;;;;;;;;;;5027276;28;20075;-75
2023/08/06 12:53:42;;;;;;;2.15;1.10;;;;;;;;;;5016391;28;20061;-75
2023/08/06 12:56:08;;;;;;;1.42;0.82;;;;;;;;;;5013122;28;20084;-75
2023/08/06 12:58:33;;;;;;;0.80;0.80;;;;;;;;;;5024259;28;20041;-74
2023/08/06 13:00:59;;;;;;;0.75;0.75;;;;;;;;;;5018288;28;20142;-75
2023/08/06 13:03:24;;;;;;;0.80;0.80;;;;;;;;;;5015375;28;20030;-74
2023/08/06 13:05:50;;;;;;;1.73;0.90;;;;;;;;;;5002022;28;20059;-74
2023/08/06 13:08:15;;;;;;;0.93;0.88;;;;;;;;;;5012425;28;20043;-75
2023/08/06 13:10:41;;;;;;;1.63;1.10;;;;;;;;;;5029096;28;20036;-76
2023/08/06 13:13:06;;;;;;;1.15;1.00;;;;;;;;;;5025007;28;20558;-75
2023/08/06 13:15:31;;;;;;;0.95;0.90;;;;;;;;;;5014303;28;20037;-75
2023/08/06 13:17:57;;;;;;;0.90;0.90;;;;;;;;;;5020881;28;20041;-75
2023/08/06 13:20:22;;;;;;;1.33;0.90;;;;;;;;;;5023646;28;20044;-75
2023/08/06 13:22:50;;;;;;;3.58;0.80;;;;;;;;;;5021427;28;20052;-74
2023/08/06 13:25:16;;;;;;;1.80;0.65;;;;;;;;;;5018319;28;20045;-75
2023/08/06 13:27:44;;;;;;;0.57;0.57;;;;;;;;;;5019336;28;20101;-74
2023/08/06 13:30:10;;;;;;;0.80;0.80;;;;;;;;;;5001457;28;20103;-74
2023/08/06 13:32:36;;;;;;;2.65;0.93;;;;;;;;;;5003741;28;20072;-74
2023/08/06 13:35:05;;;;;;;1.10;1.00;;;;;;;;;;4996474;28;20532;-74
2023/08/06 13:37:30;;;;;;;0.77;0.77;;;;;;;;;;5020718;28;20045;-74
2023/08/06 13:39:56;;;;;;;0.88;0.85;;;;;;;;;;5025596;28;20041;-75
2023/08/06 13:42:22;;;;;;;1.00;0.90;;;;;;;;;;5027457;28;20084;-74
2023/08/06 13:44:47;;;;;;;0.88;0.80;;;;;;;;;;4986042;28;20048;-74
2023/08/06 13:47:12;;;;;;;1.40;1.02;;;;;;;;;;5025849;28;20069;-74
2023/08/06 13:49:38;;;;;;;0.88;0.88;;;;;;;;;;5027819;28;20076;-74
2023/08/06 13:52:04;;;;;;;1.00;0.73;;;;;;;;;;5013533;28;20195;-74
2023/08/06 13:54:29;;;;;;;1.42;1.00;;;;;;;;;;5028027;28;20045;-74
2023/08/06 13:56:55;;;;;;;1.48;0.70;;;;;;;;;;5020180;28;20037;-74
2023/08/06 13:59:20;;;;;;;1.40;1.02;;;;;;;;;;5020489;28;20048;-75
2023/08/06 14:01:46;;;;;;;1.38;0.82;;;;;;;;;;5021484;28;20041;-74
2023/08/06 14:04:13;;;;;;;1.45;1.00;;;;;;;;;;5026817;28;20402;-74
2023/08/06 14:06:38;;;;;;;1.30;1.10;;;;;;;;;;5007576;28;20045;-75
2023/08/06 14:09:03;;;;;;;0.88;0.88;;;;;;;;;;5033600;28;20074;-74
2023/08/06 14:11:29;;;;;;;1.70;1.00;;;;;;;;;;5006631;28;20036;-74
2023/08/06 14:13:55;;;;;;;1.08;0.95;;;;;;;;;;5025437;28;20164;-74
2023/08/06 14:16:20;;;;;;;1.38;0.93;;;;;;;;;;5021370;28;20210;-75
2023/08/06 14:18:45;;;;;;;1.63;0.98;;;;;;;;;;5017997;28;20038;-74
2023/08/06 14:21:11;;;;;;;0.82;0.70;;;;;;;;;;5020957;28;20045;-75
2023/08/06 14:23:36;;;;;;;2.50;0.90;;;;;;;;;;5021623;28;20040;-75
2023/08/06 14:26:02;;;;;;;0.75;0.73;;;;;;;;;;5000888;28;20033;-76
2023/08/06 14:28:27;;;;;;;1.35;1.00;;;;;;;;;;5006315;28;20045;-76
2023/08/06 14:30:53;;;;;;;1.13;0.90;;;;;;;;;;5025378;28;20568;-75
2023/08/06 14:33:18;;;;;;;2.58;1.13;;;;;;;;;;5030108;28;20049;-76
2023/08/06 14:35:44;;;;;;;1.50;1.10;;;;;;;;;;5029200;28;20037;-76
2023/08/06 14:38:09;;;;;;;0.68;0.68;;;;;;;;;;5026764;28;20630;-76
2023/08/06 14:40:37;;;;;;;0.90;0.80;;;;;;;;;;5006934;28;20576;-76